createdAt,value
2018-07-09T00:00:55.061Z,0.00
2018-07-09T00:01:55.053Z,0.00
2018-07-09T00:02:55.028Z,0.00
2018-07-09T00:03:55.014Z,0.00
2018-07-09T00:04:54.994Z,0.00
2018-07-09T00:05:54.977Z,0.00
2018-07-09T00:06:54.972Z,0.00
2018-07-09T00:07:54.944Z,0.00
2018-07-09T00:08:54.927Z,0.00
2018-07-09T00:09:54.910Z,0.00
2018-07-09T00:10:54.897Z,0.00
2018-07-09T00:11:54.891Z,0.00
2018-07-09T00:12:54.859Z,0.00
2018-07-09T00:13:54.846Z,0.00
2018-07-09T00:14:54.827Z,0.00
2018-07-09T00:15:54.809Z,0.00
2018-07-09T00:16:54.792Z,0.00
2018-07-09T00:17:54.785Z,0.00
2018-07-09T00:18:54.758Z,0.00
2018-07-09T00:19:54.740Z,0.00
2018-07-09T00:20:54.724Z,0.00
2018-07-09T00:21:54.706Z,0.00
2018-07-09T00:22:54.724Z,0.00
2018-07-09T00:23:54.673Z,0.00
2018-07-09T00:24:54.655Z,0.00
2018-07-09T00:25:54.638Z,0.00
2018-07-09T00:26:54.621Z,0.00
2018-07-09T00:27:54.605Z,0.00
2018-07-09T00:28:54.596Z,0.00
2018-07-09T00:29:54.569Z,0.00
2018-07-09T00:30:54.556Z,0.00
2018-07-09T00:31:54.535Z,0.00
2018-07-09T00:32:54.519Z,0.00
2018-07-09T00:33:54.512Z,0.00
2018-07-09T00:34:54.484Z,0.00
2018-07-09T00:35:54.468Z,0.00
2018-07-09T00:36:54.449Z,0.00
2018-07-09T00:37:54.438Z,0.00
2018-07-09T00:38:54.426Z,0.00
2018-07-09T00:39:54.402Z,0.00
2018-07-09T00:40:54.383Z,0.00
2018-07-09T00:41:54.364Z,0.00
2018-07-09T00:42:54.347Z,0.00
2018-07-09T00:43:54.348Z,0.00
2018-07-09T00:44:54.312Z,0.00
2018-07-09T00:45:54.297Z,0.00
2018-07-09T00:46:54.280Z,0.00
2018-07-09T00:47:54.261Z,0.00
2018-07-09T00:48:54.243Z,0.00
2018-07-09T00:49:54.235Z,0.00
2018-07-09T00:50:54.219Z,0.00
2018-07-09T00:51:54.192Z,0.00
2018-07-09T00:52:54.174Z,0.00
2018-07-09T00:53:54.157Z,0.00
2018-07-09T00:54:54.150Z,0.00
2018-07-09T00:55:54.123Z,0.00
2018-07-09T00:56:54.105Z,0.00
2018-07-09T00:57:54.088Z,0.00
2018-07-09T00:58:54.072Z,0.00
2018-07-09T00:59:54.066Z,0.00
2018-07-09T01:00:54.035Z,0.00
2018-07-09T01:01:54.025Z,0.00
2018-07-09T01:02:54.000Z,0.00
2018-07-09T01:03:53.985Z,0.00
2018-07-09T01:04:53.965Z,0.00
2018-07-09T01:05:53.958Z,0.00
2018-07-09T01:06:53.931Z,0.00
2018-07-09T01:07:53.914Z,0.00
2018-07-09T01:08:53.903Z,0.00
2018-07-09T01:09:53.891Z,0.00
2018-07-09T01:10:53.863Z,0.00
2018-07-09T01:11:53.844Z,0.00
2018-07-09T01:12:53.826Z,0.00
2018-07-09T01:13:53.809Z,0.00
2018-07-09T01:14:53.824Z,0.00
2018-07-09T01:15:53.774Z,0.00
2018-07-09T01:16:53.756Z,0.00
2018-07-09T01:17:53.743Z,0.00
2018-07-09T01:18:53.722Z,0.00
2018-07-09T01:19:53.705Z,0.00
2018-07-09T01:20:53.697Z,0.00
2018-07-09T01:21:53.669Z,0.00
2018-07-09T01:22:53.649Z,0.00
2018-07-09T01:23:53.635Z,0.00
2018-07-09T01:24:53.647Z,0.00
2018-07-09T01:25:53.599Z,0.00
2018-07-09T01:26:53.581Z,0.00
2018-07-09T01:27:53.564Z,0.00
2018-07-09T01:28:53.546Z,0.00
2018-07-09T01:29:53.529Z,0.00
2018-07-09T01:30:53.520Z,0.00
2018-07-09T01:31:53.494Z,0.00
2018-07-09T01:32:53.475Z,0.00
2018-07-09T01:33:53.459Z,0.00
2018-07-09T01:34:53.442Z,0.00
2018-07-09T01:35:53.434Z,0.00
2018-07-09T01:36:53.405Z,0.00
2018-07-09T01:37:53.386Z,0.00
2018-07-09T01:38:53.371Z,0.00
2018-07-09T01:39:53.353Z,0.00
2018-07-09T01:40:53.351Z,0.00
2018-07-09T01:41:53.319Z,0.00
2018-07-09T01:42:53.301Z,0.00
2018-07-09T01:43:53.283Z,0.00
2018-07-09T01:44:53.263Z,0.00
2018-07-09T01:45:53.247Z,0.00
2018-07-09T01:46:53.237Z,0.00
2018-07-09T01:47:53.211Z,0.00
2018-07-09T01:48:53.193Z,0.00
2018-07-09T01:49:53.175Z,0.00
2018-07-09T01:50:53.159Z,0.00
2018-07-09T01:51:53.153Z,0.00
2018-07-09T01:52:53.126Z,0.00
2018-07-09T01:53:53.104Z,0.00
2018-07-09T01:54:53.087Z,0.00
2018-07-09T01:55:53.067Z,0.00
2018-07-09T01:56:53.061Z,0.00
2018-07-09T01:57:53.034Z,0.00
2018-07-09T01:58:53.021Z,0.00
2018-07-09T01:59:52.999Z,0.00
2018-07-09T02:00:52.981Z,0.00
2018-07-09T02:01:52.976Z,0.00
2018-07-09T02:02:52.946Z,0.00
2018-07-09T02:03:52.929Z,0.00
2018-07-09T02:04:52.908Z,0.00
2018-07-09T02:05:52.893Z,0.00
2018-07-09T02:06:52.909Z,0.00
2018-07-09T02:07:52.857Z,0.00
2018-07-09T02:08:52.838Z,0.00
2018-07-09T02:09:52.821Z,0.00
2018-07-09T02:10:52.803Z,0.00
2018-07-09T02:11:52.788Z,0.00
2018-07-09T02:12:52.776Z,0.00
2018-07-09T02:13:52.749Z,0.00
2018-07-09T02:14:52.732Z,0.00
2018-07-09T02:15:52.716Z,0.00
2018-07-09T02:16:52.697Z,0.00
2018-07-09T02:17:52.686Z,0.00
2018-07-09T02:18:52.660Z,0.00
2018-07-09T02:19:52.642Z,0.00
2018-07-09T02:20:52.623Z,0.00
2018-07-09T02:21:52.607Z,0.00
2018-07-09T02:22:52.598Z,0.00
2018-07-09T02:23:52.570Z,0.00
2018-07-09T02:24:52.553Z,0.00
2018-07-09T02:25:52.537Z,0.00
2018-07-09T02:26:52.518Z,0.00
2018-07-09T02:27:52.511Z,0.00
2018-07-09T02:28:52.480Z,0.00
2018-07-09T02:29:52.463Z,0.00
2018-07-09T02:30:52.446Z,0.00
2018-07-09T02:31:52.430Z,0.00
2018-07-09T02:32:52.424Z,0.00
2018-07-09T02:33:52.391Z,0.00
2018-07-09T02:34:52.374Z,0.00
2018-07-09T02:35:52.356Z,0.00
2018-07-09T02:36:52.336Z,0.00
2018-07-09T02:37:52.320Z,0.00
2018-07-09T02:38:52.311Z,0.00
2018-07-09T02:39:52.285Z,0.00
2018-07-09T02:40:52.272Z,0.00
2018-07-09T02:41:52.248Z,0.00
2018-07-09T02:42:52.229Z,0.00
2018-07-09T02:43:52.221Z,0.00
2018-07-09T02:44:52.196Z,0.00
2018-07-09T02:45:52.175Z,0.00
2018-07-09T02:46:52.158Z,0.00
2018-07-09T02:47:52.140Z,0.00
2018-07-09T02:48:52.130Z,0.00
2018-07-09T02:49:52.103Z,0.00
2018-07-09T02:50:52.085Z,0.00
2018-07-09T02:51:52.068Z,0.00
2018-07-09T02:52:52.055Z,0.00
2018-07-09T02:53:52.043Z,0.00
2018-07-09T02:54:52.013Z,0.00
2018-07-09T02:55:51.996Z,0.00
2018-07-09T02:56:51.988Z,0.00
2018-07-09T02:57:51.958Z,0.00
2018-07-09T02:58:51.941Z,0.00
2018-07-09T02:59:51.934Z,0.00
2018-07-09T03:00:52.000Z,0.00
2018-07-09T03:01:51.890Z,0.00
2018-07-09T03:02:51.868Z,0.00
2018-07-09T03:03:51.862Z,0.00
2018-07-09T03:04:51.884Z,0.00
2018-07-09T03:05:51.812Z,0.00
2018-07-09T03:06:51.796Z,0.00
2018-07-09T03:07:51.778Z,0.00
2018-07-09T03:08:51.759Z,0.00
2018-07-09T03:09:51.757Z,0.00
2018-07-09T03:10:51.722Z,0.00
2018-07-09T03:11:51.708Z,0.00
2018-07-09T03:12:51.685Z,0.00
2018-07-09T03:13:51.667Z,0.00
2018-07-09T03:14:51.650Z,0.00
2018-07-09T03:15:51.644Z,5.63
2018-07-09T03:16:51.614Z,5.63
2018-07-09T03:17:51.595Z,5.63
2018-07-09T03:18:51.577Z,5.63
2018-07-09T03:19:51.559Z,5.63
2018-07-09T03:20:51.549Z,5.63
2018-07-09T03:21:51.523Z,5.63
2018-07-09T03:22:51.505Z,5.63
2018-07-09T03:23:51.485Z,5.63
2018-07-09T03:24:51.467Z,11.25
2018-07-09T03:25:51.458Z,11.25
2018-07-09T03:26:51.432Z,11.25
2018-07-09T03:27:51.413Z,11.25
2018-07-09T03:28:51.394Z,11.25
2018-07-09T03:29:51.376Z,11.25
2018-07-09T03:30:51.367Z,11.25
2018-07-09T03:31:51.339Z,16.88
2018-07-09T03:32:51.320Z,16.88
2018-07-09T03:33:51.302Z,16.88
2018-07-09T03:34:51.287Z,16.88
2018-07-09T03:35:51.275Z,16.88
2018-07-09T03:36:51.246Z,22.50
2018-07-09T03:37:51.229Z,22.50
2018-07-09T03:38:51.210Z,22.50
2018-07-09T03:39:51.199Z,22.50
2018-07-09T03:40:51.182Z,28.13
2018-07-09T03:41:51.155Z,28.13
2018-07-09T03:42:51.138Z,28.13
2018-07-09T03:43:51.119Z,28.13
2018-07-09T03:44:51.098Z,33.75
2018-07-09T03:45:51.093Z,33.75
2018-07-09T03:46:51.063Z,33.75
2018-07-09T03:47:51.045Z,33.75
2018-07-09T03:48:51.025Z,39.38
2018-07-09T03:49:51.008Z,39.38
2018-07-09T03:50:51.000Z,39.38
2018-07-09T03:51:50.972Z,45.00
2018-07-09T03:52:50.962Z,45.00
2018-07-09T03:53:50.934Z,50.63
2018-07-09T03:54:50.914Z,50.63
2018-07-09T03:55:50.948Z,50.63
2018-07-09T03:56:50.878Z,56.25
2018-07-09T03:57:50.861Z,56.25
2018-07-09T03:58:50.844Z,61.88
2018-07-09T03:59:50.824Z,61.88
2018-07-09T04:00:50.816Z,67.50
2018-07-09T04:01:50.787Z,67.50
2018-07-09T04:02:50.768Z,73.13
2018-07-09T04:03:50.751Z,73.13
2018-07-09T04:04:50.731Z,73.13
2018-07-09T04:05:50.724Z,78.75
2018-07-09T04:06:50.695Z,78.75
2018-07-09T04:07:50.677Z,78.75
2018-07-09T04:08:50.658Z,84.38
2018-07-09T04:09:50.641Z,84.38
2018-07-09T04:10:50.632Z,90.00
2018-07-09T04:11:50.603Z,90.00
2018-07-09T04:12:50.584Z,90.00
2018-07-09T04:13:50.565Z,90.00
2018-07-09T04:14:50.577Z,95.63
2018-07-09T04:15:50.529Z,95.63
2018-07-09T04:16:50.519Z,95.63
2018-07-09T04:17:50.491Z,101.25
2018-07-09T04:18:50.473Z,101.25
2018-07-09T04:19:50.456Z,101.25
2018-07-09T04:20:50.484Z,106.88
2018-07-09T04:21:50.429Z,106.88
2018-07-09T04:22:50.402Z,106.88
2018-07-09T04:23:50.384Z,112.50
2018-07-09T04:24:50.362Z,112.50
2018-07-09T04:25:50.345Z,112.50
2018-07-09T04:26:50.337Z,118.13
2018-07-09T04:27:50.308Z,118.13
2018-07-09T04:28:50.288Z,118.13
2018-07-09T04:29:50.269Z,123.75
2018-07-09T04:30:50.253Z,123.75
2018-07-09T04:31:50.345Z,123.75
2018-07-09T04:32:50.213Z,129.38
2018-07-09T04:33:50.197Z,129.38
2018-07-09T04:34:50.179Z,129.38
2018-07-09T04:35:50.160Z,129.38
2018-07-09T04:36:50.141Z,135.00
2018-07-09T04:37:50.173Z,135.00
2018-07-09T04:38:50.105Z,135.00
2018-07-09T04:39:50.089Z,140.63
2018-07-09T04:40:50.071Z,140.63
2018-07-09T04:41:50.049Z,140.63
2018-07-09T04:42:50.041Z,140.63
2018-07-09T04:43:50.013Z,146.25
2018-07-09T04:44:49.994Z,146.25
2018-07-09T04:45:49.976Z,146.25
2018-07-09T04:46:49.958Z,146.25
2018-07-09T04:47:49.957Z,151.88
2018-07-09T04:48:49.920Z,151.88
2018-07-09T04:49:49.903Z,151.88
2018-07-09T04:50:49.885Z,151.88
2018-07-09T04:51:49.868Z,157.50
2018-07-09T04:52:49.848Z,157.50
2018-07-09T04:53:49.840Z,157.50
2018-07-09T04:54:49.812Z,157.50
2018-07-09T04:55:49.794Z,163.13
2018-07-09T04:56:49.775Z,163.13
2018-07-09T04:57:49.757Z,163.13
2018-07-09T04:58:49.748Z,163.13
2018-07-09T04:59:49.722Z,168.75
2018-07-09T05:00:49.702Z,168.75
2018-07-09T05:01:49.683Z,168.75
2018-07-09T05:02:49.668Z,168.75
2018-07-09T05:03:49.661Z,168.75
2018-07-09T05:04:49.629Z,174.38
2018-07-09T05:05:49.612Z,174.38
2018-07-09T05:06:49.592Z,174.38
2018-07-09T05:07:49.575Z,174.38
2018-07-09T05:08:49.557Z,180.00
2018-07-09T05:09:49.548Z,180.00
2018-07-09T05:10:49.522Z,180.00
2018-07-09T05:11:49.504Z,180.00
2018-07-09T05:12:49.484Z,180.00
2018-07-09T05:13:49.475Z,185.63
2018-07-09T05:14:49.449Z,185.63
2018-07-09T05:15:49.429Z,185.63
2018-07-09T05:16:49.412Z,185.63
2018-07-09T05:17:49.392Z,185.63
2018-07-09T05:18:49.385Z,191.25
2018-07-09T05:19:49.357Z,191.25
2018-07-09T05:20:49.341Z,191.25
2018-07-09T05:21:49.321Z,191.25
2018-07-09T05:22:49.309Z,191.25
2018-07-09T05:23:49.294Z,191.25
2018-07-09T05:24:49.266Z,196.88
2018-07-09T05:25:49.248Z,196.88
2018-07-09T05:26:49.231Z,196.88
2018-07-09T05:27:49.212Z,196.88
2018-07-09T05:28:49.204Z,196.88
2018-07-09T05:29:49.177Z,202.50
2018-07-09T05:30:49.160Z,196.88
2018-07-09T05:31:49.141Z,196.88
2018-07-09T05:32:49.121Z,196.88
2018-07-09T05:33:49.118Z,202.50
2018-07-09T05:34:49.088Z,202.50
2018-07-09T05:35:49.070Z,208.13
2018-07-09T05:36:49.052Z,208.13
2018-07-09T05:37:49.034Z,213.75
2018-07-09T05:38:49.016Z,213.75
2018-07-09T05:39:49.008Z,219.38
2018-07-09T05:40:48.982Z,219.38
2018-07-09T05:41:48.964Z,225.00
2018-07-09T05:42:48.946Z,236.25
2018-07-09T05:43:48.928Z,236.25
2018-07-09T05:44:48.922Z,241.88
2018-07-09T05:45:48.903Z,241.88
2018-07-09T05:46:48.875Z,241.88
2018-07-09T05:47:48.859Z,241.88
2018-07-09T05:48:48.839Z,241.88
2018-07-09T05:49:48.855Z,241.88
2018-07-09T05:50:48.806Z,247.50
2018-07-09T05:51:48.789Z,247.50
2018-07-09T05:52:48.767Z,247.50
2018-07-09T05:53:48.754Z,247.50
2018-07-09T05:54:48.737Z,247.50
2018-07-09T05:55:48.729Z,247.50
2018-07-09T05:56:48.703Z,247.50
2018-07-09T05:57:48.686Z,247.50
2018-07-09T05:58:48.685Z,247.50
2018-07-09T05:59:48.653Z,253.13
2018-07-09T06:00:48.644Z,253.13
2018-07-09T06:01:48.702Z,253.13
2018-07-09T06:02:48.604Z,253.13
2018-07-09T06:03:48.585Z,253.13
2018-07-09T06:04:48.570Z,253.13
2018-07-09T06:05:48.580Z,253.13
2018-07-09T06:06:48.550Z,253.13
2018-07-09T06:07:48.523Z,253.13
2018-07-09T06:08:48.508Z,258.75
2018-07-09T06:09:48.490Z,264.38
2018-07-09T06:10:48.516Z,258.75
2018-07-09T06:11:48.468Z,258.75
2018-07-09T06:12:48.444Z,258.75
2018-07-09T06:13:48.429Z,258.75
2018-07-09T06:14:48.412Z,258.75
2018-07-09T06:15:48.398Z,264.38
2018-07-09T06:16:48.389Z,264.38
2018-07-09T06:17:48.382Z,264.38
2018-07-09T06:18:48.350Z,264.38
2018-07-09T06:19:48.860Z,264.38
2018-07-09T06:20:48.321Z,264.38
2018-07-09T06:21:48.316Z,264.38
2018-07-09T06:22:48.313Z,264.38
2018-07-09T06:23:48.273Z,264.38
2018-07-09T06:24:48.260Z,264.38
2018-07-09T06:25:48.246Z,264.38
2018-07-09T06:26:48.243Z,264.38
2018-07-09T06:27:48.219Z,264.38
2018-07-09T06:28:48.201Z,264.38
2018-07-09T06:29:48.212Z,264.38
2018-07-09T06:30:48.172Z,264.38
2018-07-09T06:31:48.217Z,264.38
2018-07-09T06:32:48.148Z,264.38
2018-07-09T06:33:48.164Z,270.00
2018-07-09T06:34:48.116Z,270.00
2018-07-09T06:35:48.103Z,270.00
2018-07-09T06:36:48.095Z,270.00
2018-07-09T06:37:48.078Z,270.00
2018-07-09T06:38:48.057Z,270.00
2018-07-09T06:39:48.043Z,270.00
2018-07-09T06:40:48.027Z,270.00
2018-07-09T06:41:48.022Z,270.00
2018-07-09T06:42:48.000Z,270.00
2018-07-09T06:43:47.985Z,270.00
2018-07-09T06:44:48.038Z,270.00
2018-07-09T06:45:47.957Z,270.00
2018-07-09T06:46:47.951Z,270.00
2018-07-09T06:47:47.928Z,270.00
2018-07-09T06:48:47.916Z,270.00
2018-07-09T06:49:47.901Z,270.00
2018-07-09T06:50:47.886Z,270.00
2018-07-09T06:51:47.886Z,270.00
2018-07-09T06:52:47.909Z,270.00
2018-07-09T06:53:47.847Z,275.63
2018-07-09T06:54:47.912Z,275.63
2018-07-09T06:55:47.841Z,275.63
2018-07-09T06:56:47.814Z,275.63
2018-07-09T06:57:47.787Z,275.63
2018-07-09T06:58:47.773Z,275.63
2018-07-09T06:59:47.762Z,275.63
2018-07-09T07:00:47.745Z,281.25
2018-07-09T07:01:47.731Z,275.63
2018-07-09T07:02:47.727Z,275.63
2018-07-09T07:03:47.708Z,281.25
2018-07-09T07:04:47.718Z,281.25
2018-07-09T07:05:47.704Z,281.25
2018-07-09T07:06:47.665Z,281.25
2018-07-09T07:07:47.672Z,281.25
2018-07-09T07:08:47.727Z,281.25
2018-07-09T07:09:47.624Z,281.25
2018-07-09T07:10:47.609Z,286.88
2018-07-09T07:11:47.594Z,286.88
2018-07-09T07:12:47.592Z,286.88
2018-07-09T07:13:47.568Z,286.88
2018-07-09T07:14:47.556Z,286.88
2018-07-09T07:15:47.543Z,286.88
2018-07-09T07:16:47.528Z,286.88
2018-07-09T07:17:47.524Z,286.88
2018-07-09T07:18:47.501Z,286.88
2018-07-09T07:19:47.489Z,286.88
2018-07-09T07:20:47.474Z,286.88
2018-07-09T07:21:47.462Z,286.88
2018-07-09T07:22:47.458Z,286.88
2018-07-09T07:23:47.439Z,286.88
2018-07-09T07:24:47.422Z,286.88
2018-07-09T07:25:47.410Z,286.88
2018-07-09T07:26:47.396Z,286.88
2018-07-09T07:27:47.393Z,292.50
2018-07-09T07:28:47.369Z,292.50
2018-07-09T07:29:47.358Z,292.50
2018-07-09T07:30:47.343Z,292.50
2018-07-09T07:31:47.330Z,292.50
2018-07-09T07:32:47.335Z,292.50
2018-07-09T07:33:47.307Z,298.13
2018-07-09T07:34:47.290Z,292.50
2018-07-09T07:35:47.278Z,286.88
2018-07-09T07:36:47.289Z,286.88
2018-07-09T07:37:47.260Z,286.88
2018-07-09T07:38:47.238Z,286.88
2018-07-09T07:39:47.225Z,286.88
2018-07-09T07:40:47.213Z,286.88
2018-07-09T07:41:47.201Z,286.88
2018-07-09T07:42:47.196Z,286.88
2018-07-09T07:43:47.171Z,286.88
2018-07-09T07:44:47.205Z,286.88
2018-07-09T07:45:47.145Z,286.88
2018-07-09T07:46:47.132Z,286.88
2018-07-09T07:47:47.128Z,286.88
2018-07-09T07:48:47.105Z,286.88
2018-07-09T07:49:47.092Z,286.88
2018-07-09T07:50:47.078Z,286.88
2018-07-09T07:51:47.063Z,286.88
2018-07-09T07:52:47.060Z,286.88
2018-07-09T07:53:47.038Z,292.50
2018-07-09T07:54:47.025Z,286.88
2018-07-09T07:55:47.073Z,286.88
2018-07-09T07:56:46.999Z,286.88
2018-07-09T07:57:46.992Z,286.88
2018-07-09T07:58:46.969Z,292.50
2018-07-09T07:59:46.956Z,292.50
2018-07-09T08:00:46.945Z,292.50
2018-07-09T08:01:46.929Z,292.50
2018-07-09T08:02:46.966Z,292.50
2018-07-09T08:03:46.902Z,292.50
2018-07-09T08:04:46.887Z,292.50
2018-07-09T08:05:46.874Z,303.75
2018-07-09T08:06:46.861Z,309.38
2018-07-09T08:07:46.857Z,298.13
2018-07-09T08:08:46.833Z,298.13
2018-07-09T08:09:46.866Z,298.13
2018-07-09T08:10:46.807Z,298.13
2018-07-09T08:11:49.259Z,298.13
2018-07-09T08:13:27.164Z,298.13
2018-07-09T08:13:46.790Z,303.75
2018-07-09T08:14:46.809Z,303.75
2018-07-09T08:15:46.738Z,303.75
2018-07-09T08:16:46.723Z,303.75
2018-07-09T08:19:53.931Z,303.75
2018-07-09T08:20:19.758Z,309.38
2018-07-09T08:21:19.737Z,309.38
2018-07-09T08:22:19.747Z,309.38
2018-07-09T08:23:19.711Z,315.00
2018-07-09T08:24:19.696Z,315.00
2018-07-09T08:25:19.690Z,320.63
2018-07-09T08:26:19.669Z,320.63
2018-07-09T08:27:19.669Z,326.25
2018-07-09T08:28:19.645Z,326.25
2018-07-09T08:29:19.628Z,331.88
2018-07-09T08:30:19.614Z,331.88
2018-07-09T08:31:19.683Z,337.50
2018-07-09T08:32:19.621Z,348.75
2018-07-09T08:33:19.572Z,348.75
2018-07-09T08:34:19.559Z,354.38
2018-07-09T08:35:19.547Z,365.63
2018-07-09T08:36:19.538Z,376.88
2018-07-09T08:37:19.518Z,388.13
2018-07-09T08:38:19.514Z,399.38
2018-07-09T08:39:19.498Z,410.63
2018-07-09T08:40:19.477Z,416.25
2018-07-09T08:41:19.464Z,433.13
2018-07-09T08:42:19.450Z,450.00
2018-07-09T08:43:19.451Z,466.88
2018-07-09T08:44:19.423Z,483.75
2018-07-09T08:45:19.410Z,495.00
2018-07-09T08:46:19.402Z,511.88
2018-07-09T08:47:19.419Z,540.00
2018-07-09T08:48:19.369Z,545.63
2018-07-09T08:49:19.364Z,556.88
2018-07-09T08:50:19.343Z,556.88
2018-07-09T08:51:19.333Z,568.13
2018-07-09T08:52:19.315Z,596.25
2018-07-09T08:53:19.314Z,624.38
2018-07-09T08:54:19.324Z,641.25
2018-07-09T08:55:19.286Z,630.00
2018-07-09T08:56:19.262Z,618.75
2018-07-09T08:57:19.249Z,601.88
2018-07-09T08:58:19.237Z,585.00
2018-07-09T08:59:19.222Z,573.75
2018-07-09T09:00:19.219Z,573.75
2018-07-09T09:01:19.197Z,551.25
2018-07-09T09:02:19.184Z,528.75
2018-07-09T09:03:19.170Z,495.00
2018-07-09T09:04:19.158Z,483.75
2018-07-09T09:05:19.154Z,495.00
2018-07-09T09:06:19.133Z,534.38
2018-07-09T09:07:19.119Z,556.88
2018-07-09T09:08:19.106Z,556.88
2018-07-09T09:09:19.093Z,534.38
2018-07-09T09:10:19.156Z,534.38
2018-07-09T09:11:19.072Z,534.38
2018-07-09T09:12:19.052Z,534.38
2018-07-09T09:13:19.043Z,540.00
2018-07-09T09:14:19.030Z,517.50
2018-07-09T09:15:19.033Z,523.13
2018-07-09T09:16:19.007Z,523.13
2018-07-09T09:17:18.990Z,511.88
2018-07-09T09:18:18.978Z,517.50
2018-07-09T09:19:18.963Z,534.38
2018-07-09T09:20:18.952Z,528.75
2018-07-09T09:21:18.949Z,500.63
2018-07-09T09:22:18.926Z,483.75
2018-07-09T09:23:18.916Z,461.25
2018-07-09T09:24:18.900Z,461.25
2018-07-09T09:25:18.887Z,455.63
2018-07-09T09:26:18.884Z,461.25
2018-07-09T09:27:18.868Z,472.50
2018-07-09T09:28:18.848Z,478.13
2018-07-09T09:29:18.834Z,466.88
2018-07-09T09:30:18.822Z,455.63
2018-07-09T09:31:18.892Z,444.38
2018-07-09T09:32:18.795Z,438.75
2018-07-09T09:33:18.784Z,433.13
2018-07-09T09:34:18.775Z,438.75
2018-07-09T09:35:18.759Z,433.13
2018-07-09T09:36:18.744Z,427.50
2018-07-09T09:37:18.744Z,427.50
2018-07-09T09:38:18.720Z,427.50
2018-07-09T09:39:18.709Z,421.88
2018-07-09T09:40:18.692Z,410.63
2018-07-09T09:41:18.681Z,410.63
2018-07-09T09:42:18.679Z,405.00
2018-07-09T09:43:18.655Z,405.00
2018-07-09T09:44:18.644Z,405.00
2018-07-09T09:45:18.630Z,405.00
2018-07-09T09:46:18.617Z,405.00
2018-07-09T09:47:18.619Z,405.00
2018-07-09T09:48:18.590Z,405.00
2018-07-09T09:49:18.605Z,410.63
2018-07-09T09:50:18.565Z,416.25
2018-07-09T09:51:18.552Z,399.38
2018-07-09T09:52:18.551Z,376.88
2018-07-09T09:53:18.527Z,399.38
2018-07-09T09:54:18.515Z,405.00
2018-07-09T09:55:18.501Z,483.75
2018-07-09T09:56:18.489Z,483.75
2018-07-09T09:57:18.486Z,472.50
2018-07-09T09:58:18.464Z,478.13
2018-07-09T09:59:18.453Z,506.25
2018-07-09T10:00:18.438Z,534.38
2018-07-09T10:01:18.425Z,573.75
2018-07-09T10:02:18.424Z,551.25
2018-07-09T10:03:18.402Z,573.75
2018-07-09T10:04:18.388Z,523.13
2018-07-09T10:05:18.376Z,455.63
2018-07-09T10:06:18.363Z,427.50
2018-07-09T10:07:18.361Z,466.88
2018-07-09T10:08:18.339Z,511.88
2018-07-09T10:09:18.327Z,523.13
2018-07-09T10:10:18.314Z,528.75
2018-07-09T10:11:18.303Z,500.63
2018-07-09T10:12:18.302Z,506.25
2018-07-09T10:13:18.276Z,483.75
2018-07-09T10:14:18.263Z,466.88
2018-07-09T10:15:18.251Z,450.00
2018-07-09T10:16:18.241Z,427.50
2018-07-09T10:17:18.226Z,450.00
2018-07-09T10:18:18.226Z,405.00
2018-07-09T10:19:18.205Z,461.25
2018-07-09T10:20:18.190Z,461.25
2018-07-09T10:21:18.179Z,444.38
2018-07-09T10:22:18.164Z,438.75
2018-07-09T10:23:18.326Z,427.50
2018-07-09T10:24:18.140Z,410.63
2018-07-09T10:25:18.128Z,410.63
2018-07-09T10:26:18.116Z,466.88
2018-07-09T10:27:18.108Z,478.13
2018-07-09T10:28:18.107Z,489.38
2018-07-09T10:29:18.079Z,489.38
2018-07-09T10:30:18.068Z,455.63
2018-07-09T10:31:18.056Z,421.88
2018-07-09T10:32:18.043Z,472.50
2018-07-09T10:33:18.032Z,562.50
2018-07-09T10:34:18.030Z,545.63
2018-07-09T10:35:18.009Z,523.13
2018-07-09T10:36:17.995Z,551.25
2018-07-09T10:37:17.982Z,585.00
2018-07-09T10:38:17.973Z,680.63
2018-07-09T10:39:17.969Z,720.00
2018-07-09T10:40:17.944Z,849.38
2018-07-09T10:41:17.933Z,922.50
2018-07-09T10:42:17.922Z,866.25
2018-07-09T10:43:17.910Z,849.38
2018-07-09T10:44:17.907Z,759.38
2018-07-09T10:45:17.889Z,708.75
2018-07-09T10:46:17.878Z,680.63
2018-07-09T10:47:17.865Z,669.38
2018-07-09T10:48:17.851Z,691.88
2018-07-09T10:49:17.851Z,815.63
2018-07-09T10:50:17.828Z,843.75
2018-07-09T10:51:17.815Z,984.38
2018-07-09T10:52:17.804Z,1001.25
2018-07-09T10:53:17.795Z,950.63
2018-07-09T10:54:17.779Z,877.50
2018-07-09T10:55:17.832Z,860.63
2018-07-09T10:56:17.763Z,821.25
2018-07-09T10:57:17.747Z,720.00
2018-07-09T10:58:17.735Z,748.13
2018-07-09T10:59:17.723Z,770.63
2018-07-09T11:00:17.713Z,787.50
2018-07-09T11:01:17.710Z,736.88
2018-07-09T11:02:17.687Z,708.75
2018-07-09T11:03:17.678Z,686.25
2018-07-09T11:04:17.667Z,708.75
2018-07-09T11:05:17.654Z,742.50
2018-07-09T11:06:17.653Z,781.88
2018-07-09T11:07:17.632Z,691.88
2018-07-09T11:08:17.620Z,708.75
2018-07-09T11:09:17.610Z,781.88
2018-07-09T11:10:17.597Z,821.25
2018-07-09T11:11:17.594Z,883.13
2018-07-09T11:12:17.575Z,855.00
2018-07-09T11:13:17.562Z,905.63
2018-07-09T11:14:17.550Z,1001.25
2018-07-09T11:15:17.539Z,888.75
2018-07-09T11:16:17.594Z,933.75
2018-07-09T11:17:17.518Z,888.75
2018-07-09T11:18:17.506Z,883.13
2018-07-09T11:19:17.495Z,905.63
2018-07-09T11:20:17.480Z,883.13
2018-07-09T11:21:17.486Z,894.38
2018-07-09T11:22:17.460Z,900.00
2018-07-09T11:23:17.449Z,1001.25
2018-07-09T11:24:17.436Z,1096.88
2018-07-09T11:25:17.425Z,1119.38
2018-07-09T11:26:17.414Z,1203.75
2018-07-09T11:27:17.416Z,1271.25
2018-07-09T11:28:17.392Z,1355.63
2018-07-09T11:29:17.404Z,1344.38
2018-07-09T11:30:17.371Z,1321.88
2018-07-09T11:31:17.359Z,1310.63
2018-07-09T11:32:17.363Z,1344.38
2018-07-09T11:33:17.338Z,1372.50
2018-07-09T11:34:17.328Z,1406.25
2018-07-09T11:35:17.317Z,1389.38
2018-07-09T11:36:17.311Z,1417.50
2018-07-09T11:37:17.295Z,1440.00
2018-07-09T11:38:17.295Z,1400.63
2018-07-09T11:39:17.274Z,1383.75
2018-07-09T11:40:17.263Z,1383.75
2018-07-09T11:41:17.252Z,1366.88
2018-07-09T11:42:17.321Z,1333.13
2018-07-09T11:43:17.247Z,1288.13
2018-07-09T11:44:17.223Z,1231.88
2018-07-09T11:45:17.212Z,1209.38
2018-07-09T11:46:17.204Z,1181.25
2018-07-09T11:47:17.192Z,1147.50
2018-07-09T11:48:17.194Z,1158.75
2018-07-09T11:49:17.171Z,1158.75
2018-07-09T11:50:17.162Z,1158.75
2018-07-09T11:51:17.151Z,1085.63
2018-07-09T11:52:17.140Z,1063.13
2018-07-09T11:53:17.138Z,1080.00
2018-07-09T11:54:17.121Z,1136.25
2018-07-09T11:55:17.111Z,1203.75
2018-07-09T11:56:17.098Z,1237.50
2018-07-09T11:57:17.089Z,1248.75
2018-07-09T11:58:17.093Z,1248.75
2018-07-09T11:59:17.067Z,1265.63
2018-07-09T12:00:17.057Z,1310.63
2018-07-09T12:01:17.054Z,1383.75
2018-07-09T12:02:17.043Z,1350.00
2018-07-09T12:03:17.038Z,1327.50
2018-07-09T12:04:17.016Z,1305.00
2018-07-09T12:05:17.006Z,1316.25
2018-07-09T12:06:16.996Z,1310.63
2018-07-09T12:07:16.989Z,1327.50
2018-07-09T12:08:16.989Z,1310.63
2018-07-09T12:09:16.965Z,1282.50
2018-07-09T12:10:16.955Z,1215.00
2018-07-09T12:11:16.949Z,1181.25
2018-07-09T12:12:16.934Z,1175.63
2018-07-09T12:13:16.923Z,1175.63
2018-07-09T12:14:16.930Z,1198.13
2018-07-09T12:15:16.906Z,1226.25
2018-07-09T12:16:16.893Z,1293.75
2018-07-09T12:17:16.882Z,1361.25
2018-07-09T12:18:16.871Z,1417.50
2018-07-09T12:19:16.865Z,1440.00
2018-07-09T12:20:16.861Z,1501.88
2018-07-09T12:21:16.875Z,1580.63
2018-07-09T12:22:16.831Z,1659.38
2018-07-09T12:23:16.826Z,1743.75
2018-07-09T12:24:16.810Z,1828.13
2018-07-09T12:25:16.810Z,1816.88
2018-07-09T12:26:16.792Z,1726.88
2018-07-09T12:27:16.782Z,1732.50
2018-07-09T12:28:16.770Z,1726.88
2018-07-09T12:29:16.762Z,1693.13
2018-07-09T12:30:16.761Z,1659.38
2018-07-09T12:31:16.743Z,1608.75
2018-07-09T12:32:16.731Z,1591.88
2018-07-09T12:33:16.722Z,1603.13
2018-07-09T12:34:16.713Z,1620.00
2018-07-09T12:35:16.716Z,1625.63
2018-07-09T12:36:16.737Z,1586.25
2018-07-09T12:37:16.684Z,1501.88
2018-07-09T12:38:16.675Z,1406.25
2018-07-09T12:39:16.668Z,1344.38
2018-07-09T12:40:16.688Z,1237.50
2018-07-09T12:41:16.649Z,1158.75
2018-07-09T12:42:16.638Z,1125.00